Huvudsida
METAR-TAF:

METAR-TAF

Flygplatser :

Ohrid-Sankt Paulus flygplats

Ohrid, Makedonien

latitud: 41-07N, longitud: 020-48E, höjd: 760 m

Aktuellt väderrapport

Denna rapport gjordes för 6 timmar och 2 minuter sedan, klockan 15:00 UTC
Vind 5 kt från syd
Temperatur 10°C
Fuktighet 43%
Tryck 1023 hPa
Sikt 10 km eller mer
Få moln på en höjd av 5000 ft

METAR: LWOH 211500Z 17005KT 9999 FEW050 10/M02 Q1023

Tid: 22:02 (21:02 UTC)

Väderprognos

Denna rapport gjordes för 32 minuter sedan, klockan 20:30 UTC
Prognos gäller från 21 kl. 21 UTC till 22 kl. 21 UTC
Vind 6 kt från nord
Sikt 10 km eller mer
Få moln på en höjd av 5000 ft
Spridda moln på en höjd av 10000 ft

TAF: LWOH 212030Z 2121/2221 36006KT 9999 FEW050 SCT100

Aktuella väderrapporter och prognoser från 4000 flygplatser (METAR- och TAF-rapporter).

De tillgängliga stationerna syns som gula och röda prickar på kartan.

För musen över prickarna för att se namnen på stationerna.

Klicka sedan för att få väderrapporter och prognoser.

För att ändra kartan: Klicka på de gröna knapparna med ett svart kors på för att zooma in; den gröna knappen med ett streck på för att zooma ut; eller på de gröna pilarna för angränsande kartor.


METAR-TAF: